| time (UTC) | temp C | wind direction | speed KPH | gust KPH | rain 1hr cm | rain 24hr cm | rain mn cm | humidity % | barometer mb |
| 20260507190030 | 11 | 306 | 0.0 | 0.0 | 0.00 | 0.43 | 0.43 | 92 | 1010.9 |
| 20260507184537 | 11 | 280 | 0.0 | 0.0 | 0.00 | 0.43 | 0.43 | 92 | 1010.5 |
| 20260507183033 | 11 | 286 | 0.0 | 0.0 | 0.00 | 0.43 | 0.43 | 92 | 1010.4 |
| 20260507181503 | 11 | 333 | 0.0 | 0.0 | 0.00 | 0.43 | 0.43 | 92 | 1010.3 |
| 20260507180023 | 11 | 244 | 0.0 | 0.0 | 0.00 | 0.43 | 0.43 | 93 | 1010.0 |
| 20260507174509 | 11 | 244 | 0.0 | 0.0 | 0.00 | 0.43 | 0.43 | 93 | 1009.8 |
| 20260507173022 | 12 | 244 | 0.0 | 0.0 | 0.00 | 0.43 | 0.43 | 93 | 1009.7 |
| 20260507171601 | 12 | 244 | 0.0 | 0.0 | 0.00 | 0.43 | 0.43 | 93 | 1009.6 |
| 20260507170030 | 11 | 246 | 0.0 | 0.0 | 0.00 | 0.43 | 0.43 | 92 | 1009.6 |
| 20260507164553 | 12 | 241 | 0.0 | 0.0 | 0.00 | 0.43 | 0.43 | 92 | 1009.6 |
| 20260507163015 | 12 | 241 | 0.0 | 0.0 | 0.00 | 0.43 | 0.43 | 92 | 1009.6 |
| 20260507161525 | 12 | 241 | 0.0 | 0.0 | 0.00 | 0.43 | 0.43 | 92 | 1009.6 |
| 20260507160054 | 12 | 244 | 0.0 | 0.0 | 0.00 | 0.43 | 0.43 | 91 | 1009.3 |
| 20260507154515 | 13 | 244 | 0.0 | 0.0 | 0.00 | 0.46 | 0.43 | 86 | 1009.3 |
| 20260507153021 | 15 | 243 | 0.0 | 0.0 | 0.00 | 0.46 | 0.43 | 84 | 1009.1 |
| 20260507151543 | 15 | 243 | 0.0 | 0.0 | 0.00 | 0.46 | 0.43 | 85 | 1009.0 |
| 20260507150001 | 16 | 242 | 0.0 | 0.0 | 0.00 | 0.46 | 0.43 | 83 | 1008.9 |
| 20260507144604 | 15 | 242 | 0.0 | 0.0 | 0.00 | 0.48 | 0.43 | 80 | 1009.0 |
| 20260507143045 | 15 | 155 | 0.0 | 0.0 | 0.03 | 0.48 | 0.43 | 80 | 1009.2 |
| 20260507141620 | 13 | 247 | 0.0 | 0.0 | 0.05 | 0.48 | 0.43 | 93 | 1009.2 |
| 20260507140109 | 12 | 294 | 0.0 | 0.0 | 0.05 | 0.48 | 0.43 | 94 | 1009.4 |
| 20260507134551 | 11 | 296 | 0.0 | 0.0 | 0.05 | 0.69 | 0.43 | 93 | 1009.6 |
| 20260507133030 | 12 | 298 | 0.0 | 0.0 | 0.03 | 0.66 | 0.43 | 93 | 1010.1 |
| 20260507131525 | 12 | 299 | 0.0 | 0.0 | 0.05 | 0.64 | 0.41 | 92 | 1010.2 |
| 20260507130019 | 12 | 107 | 0.0 | 0.0 | 0.13 | 0.64 | 0.41 | 93 | 1010.2 |
| 20260507124606 | 12 | 107 | 0.0 | 0.0 | 0.15 | 0.97 | 0.41 | 93 | 1010.0 |
| 20260507123046 | 11 | 107 | 0.0 | 0.0 | 0.28 | 0.97 | 0.41 | 93 | 1009.6 |
| 20260507121554 | 11 | 277 | 0.0 | 0.0 | 0.33 | 0.91 | 0.36 | 93 | 1009.4 |
| 20260507120054 | 12 | 281 | 0.0 | 0.0 | 0.25 | 0.84 | 0.28 | 92 | 1009.3 |
| 20260507114554 | 12 | 280 | 0.0 | 0.0 | 0.25 | 0.86 | 0.25 | 91 | 1009.2 |
| 20260507113043 | 12 | 281 | 0.0 | 0.0 | 0.13 | 0.71 | 0.13 | 89 | 1009.1 |
| 20260507111603 | 13 | 290 | 0.0 | 0.0 | 0.05 | 0.64 | 0.05 | 85 | 1008.9 |
| 20260507110047 | 16 | 302 | 0.0 | 0.0 | 0.03 | 0.61 | 0.03 | 79 | 1008.8 |
| 20260507104545 | 16 | 302 | 0.0 | 0.0 | 0.00 | 0.61 | 0.00 | 65 | 1009.1 |
| 20260507103039 | 16 | 22 | 0.0 | 0.0 | 0.00 | 0.61 | 0.00 | 69 | 1009.2 |
| 20260507101529 | 16 | 100 | 0.0 | 1.6 | 0.00 | 0.61 | 0.00 | 72 | 1009.4 |
| 20260507100048 | 16 | 46 | 0.0 | 0.0 | 0.00 | 0.61 | 0.00 | 73 | 1009.6 |
| 20260507094544 | 15 | 142 | 0.0 | 4.8 | 0.00 | 0.61 | 0.00 | 77 | 1009.7 |
| 20260507093059 | 15 | 134 | 0.0 | 0.0 | 0.00 | 0.61 | 0.00 | 77 | 1009.7 |
| 20260507091550 | 14 | 104 | 0.0 | 0.0 | 0.00 | 0.61 | 0.00 | 79 | 1009.7 |
| 20260507090045 | 13 | 333 | 0.0 | 0.0 | 0.00 | 0.61 | 0.00 | 81 | 1009.7 |
| 20260507084541 | 13 | 74 | 0.0 | 0.0 | 0.00 | 0.71 | 0.00 | 80 | 1009.8 |
| 20260507083021 | 12 | 296 | 0.0 | 0.0 | 0.00 | 0.71 | 0.00 | 82 | 1009.9 |
| 20260507081512 | 12 | 296 | 0.0 | 0.0 | 0.00 | 0.71 | 0.00 | 83 | 1009.9 |
| 20260507080049 | 12 | 13 | 0.0 | 0.0 | 0.00 | 0.71 | 0.00 | 85 | 1009.9 |
| 20260507074525 | 12 | 107 | 0.0 | 0.0 | 0.00 | 0.91 | 0.00 | 88 | 1009.9 |
| 20260507073042 | 12 | 107 | 0.0 | 0.0 | 0.00 | 0.91 | 0.00 | 88 | 1009.8 |
| 20260507071604 | 12 | 90 | 0.0 | 0.0 | 0.00 | 0.91 | 0.00 | 88 | 1009.7 |
| 20260507070054 | 12 | 75 | 0.0 | 0.0 | 0.00 | 0.91 | 0.00 | 91 | 1009.7 |
| 20260507064603 | 11 | 104 | 0.0 | 0.0 | 0.00 | 1.12 | 0.00 | 93 | 1009.7 |
| 20260507063057 | 11 | 124 | 0.0 | 0.0 | 0.00 | 1.12 | 0.00 | 94 | 1009.6 |
| 20260507061551 | 11 | 160 | 0.0 | 0.0 | 0.00 | 1.12 | 0.00 | 96 | 1009.6 |
| 20260507060015 | 11 | 96 | 0.0 | 0.0 | 0.00 | 1.12 | 0.00 | 96 | 1009.5 |
| 20260507054609 | 10 | 312 | 0.0 | 0.0 | 0.00 | 1.19 | 0.00 | 96 | 1009.6 |
| 20260507053054 | 10 | 312 | 0.0 | 0.0 | 0.00 | 1.19 | 0.00 | 96 | 1009.4 |
| 20260507051549 | 10 | 312 | 0.0 | 0.0 | 0.00 | 1.19 | 0.00 | 96 | 1009.2 |
| 20260507050043 | 10 | 312 | 0.0 | 0.0 | 0.00 | 1.19 | 0.00 | 96 | 1009.2 |
| 20260507044555 | 10 | 312 | 0.0 | 0.0 | 0.00 | 1.19 | 0.00 | 96 | 1009.0 |
| 20260507043103 | 10 | 312 | 0.0 | 0.0 | 0.00 | 1.19 | 0.00 | 96 | 1008.8 |
| 20260507041554 | 10 | 312 | 0.0 | 0.0 | 0.00 | 1.19 | 0.00 | 96 | 1008.7 |
| 20260507040059 | 10 | 312 | 0.0 | 0.0 | 0.00 | 1.19 | 0.00 | 96 | 1008.6 |
| 20260507034607 | 10 | 312 | 0.0 | 0.0 | 0.00 | 1.19 | 0.00 | 96 | 1008.5 |
| 20260507033042 | 10 | 312 | 0.0 | 0.0 | 0.00 | 1.19 | 0.00 | 96 | 1008.5 |
| 20260507031528 | 10 | 313 | 0.0 | 0.0 | 0.00 | 1.19 | 0.00 | 96 | 1008.3 |
| 20260507030010 | 10 | 312 | 0.0 | 0.0 | 0.00 | 1.19 | 0.00 | 96 | 1008.3 |
| 20260507024503 | 10 | 312 | 0.0 | 0.0 | 0.00 | 1.19 | 0.00 | 96 | 1008.3 |
| 20260507023021 | 10 | 312 | 0.0 | 0.0 | 0.00 | 1.19 | 0.00 | 96 | 1008.4 |
| 20260507021558 | 10 | 312 | 0.0 | 0.0 | 0.00 | 1.19 | 0.00 | 96 | 1008.5 |
| 20260507020046 | 10 | 312 | 0.0 | 0.0 | 0.00 | 1.19 | 0.00 | 96 | 1008.5 |
| 20260507014606 | 10 | 312 | 0.0 | 0.0 | 0.00 | 1.19 | 0.00 | 96 | 1008.4 |
| 20260507011543 | 10 | 312 | 0.0 | 0.0 | 0.00 | 1.19 | 0.00 | 96 | 1008.2 |
| 20260507010029 | 10 | 312 | 0.0 | 0.0 | 0.00 | 1.19 | 0.00 | 96 | 1008.3 |
| 20260507004552 | 10 | 312 | 0.0 | 0.0 | 0.00 | 1.19 | 0.00 | 96 | 1008.3 |
| 20260507003047 | 10 | 312 | 0.0 | 0.0 | 0.00 | 1.19 | 0.00 | 96 | 1008.2 |
| 20260507001606 | 10 | 312 | 0.0 | 0.0 | 0.00 | 1.19 | 0.00 | 96 | 1008.3 |
| 20260507000058 | 10 | 312 | 0.0 | 0.0 | 0.00 | 1.19 | 0.00 | 96 | 1008.3 |
| 20260506234552 | 10 | 312 | 0.0 | 0.0 | 0.00 | 1.19 | 0.00 | 96 | 1008.3 |
| 20260506233048 | 10 | 333 | 0.0 | 0.0 | 0.00 | 1.19 | 0.00 | 96 | 1008.3 |
| 20260506231547 | 10 | 333 | 0.0 | 0.0 | 0.00 | 1.19 | 0.00 | 96 | 1008.2 |
| 20260506230052 | 10 | 333 | 0.0 | 0.0 | 0.00 | 1.19 | 0.00 | 96 | 1008.2 |
| 20260506224559 | 10 | 333 | 0.0 | 0.0 | 0.00 | 1.19 | 0.00 | 95 | 1008.2 |
| 20260506223100 | 10 | 333 | 0.0 | 0.0 | 0.00 | 1.19 | 0.00 | 95 | 1008.2 |
| 20260506221542 | 10 | 333 | 0.0 | 0.0 | 0.00 | 1.19 | 0.00 | 95 | 1008.2 |
| 20260506220029 | 10 | 333 | 0.0 | 0.0 | 0.00 | 1.19 | 0.00 | 96 | 1008.0 |
| 20260506214518 | 11 | 333 | 0.0 | 0.0 | 0.00 | 1.19 | 1.19 | 96 | 1007.9 |
| 20260506213100 | 11 | 333 | 0.0 | 0.0 | 0.00 | 1.19 | 1.19 | 96 | 1008.0 |
| 20260506211557 | 11 | 333 | 0.0 | 0.0 | 0.00 | 1.19 | 1.19 | 95 | 1008.1 |
| 20260506210046 | 11 | 333 | 0.0 | 0.0 | 0.00 | 1.19 | 1.19 | 95 | 1007.9 |
| 20260506204559 | 11 | 311 | 0.0 | 0.0 | 0.00 | 1.19 | 1.19 | 96 | 1007.9 |
| 20260506203041 | 11 | 213 | 0.0 | 0.0 | 0.00 | 1.19 | 1.19 | 96 | 1007.8 |
| 20260506201544 | 11 | 213 | 0.0 | 0.0 | 0.00 | 1.19 | 1.19 | 95 | 1007.7 |
| 20260506200134 | 11 | 213 | 0.0 | 0.0 | 0.00 | 1.19 | 1.19 | 95 | 1007.8 |
| 20260506194547 | 11 | 213 | 0.0 | 0.0 | 0.00 | 1.19 | 1.19 | 95 | 1007.7 |
| 20260506193042 | 11 | 213 | 0.0 | 0.0 | 0.00 | 1.19 | 1.19 | 95 | 1007.4 |
| 20260506191554 | 11 | 213 | 0.0 | 0.0 | 0.00 | 1.19 | 1.19 | 95 | 1007.2 |